createdAt,value
2018-09-30T00:02:48.963Z,2.80
2018-09-30T00:05:53.486Z,2.50
2018-09-30T00:08:58.060Z,2.50
2018-09-30T00:12:03.652Z,2.60
2018-09-30T00:15:08.185Z,2.63
2018-09-30T00:18:12.614Z,2.50
2018-09-30T00:21:17.084Z,2.97
2018-09-30T00:24:26.768Z,3.03
2018-09-30T00:27:31.268Z,2.93
2018-09-30T00:30:35.807Z,2.63
2018-09-30T00:33:45.497Z,2.53
2018-09-30T00:36:50.041Z,2.90
2018-09-30T00:39:54.552Z,2.90
2018-09-30T00:42:59.035Z,3.13
2018-09-30T00:46:03.510Z,2.47
2018-09-30T00:49:08.082Z,2.73
2018-09-30T00:52:12.546Z,3.03
2018-09-30T00:55:17.009Z,2.10
2018-09-30T00:58:21.483Z,2.20
2018-09-30T01:01:26.044Z,2.67
2018-09-30T01:04:30.493Z,2.63
2018-09-30T01:07:35.456Z,2.53
2018-09-30T01:10:40.182Z,2.70
2018-09-30T01:13:44.685Z,2.40
2018-09-30T01:16:49.170Z,2.73
2018-09-30T01:19:53.682Z,2.50
2018-09-30T01:22:58.211Z,3.07
2018-09-30T01:26:03.082Z,2.70
2018-09-30T01:29:07.643Z,2.47
2018-09-30T01:32:12.151Z,2.80
2018-09-30T01:35:16.597Z,2.23
2018-09-30T01:38:21.018Z,2.90
2018-09-30T01:41:25.538Z,2.97
2018-09-30T01:44:29.981Z,2.97
2018-09-30T01:47:34.386Z,2.80
2018-09-30T01:50:38.869Z,2.63
2018-09-30T01:53:43.710Z,2.63
2018-09-30T01:56:48.190Z,3.20
2018-09-30T01:59:52.618Z,2.90
2018-09-30T02:02:57.199Z,3.00
2018-09-30T02:06:01.661Z,2.83
2018-09-30T02:09:06.250Z,2.77
2018-09-30T02:12:10.832Z,2.43
2018-09-30T02:15:15.347Z,2.60
2018-09-30T02:18:19.868Z,2.77
2018-09-30T02:21:24.351Z,2.80
2018-09-30T02:24:28.824Z,2.73
2018-09-30T02:27:33.341Z,2.77
2018-09-30T02:30:37.745Z,3.03
2018-09-30T02:33:42.550Z,3.20
2018-09-30T02:36:47.054Z,2.97
2018-09-30T02:39:51.471Z,2.90
2018-09-30T02:42:56.054Z,2.90
2018-09-30T02:46:00.504Z,3.10
2018-09-30T02:49:04.995Z,3.00
2018-09-30T02:52:09.507Z,3.30
2018-09-30T02:55:14.054Z,3.00
2018-09-30T02:58:18.592Z,3.17
2018-09-30T03:01:23.102Z,3.33
2018-09-30T03:04:27.610Z,3.13
2018-09-30T03:07:37.214Z,3.57
2018-09-30T03:10:41.614Z,3.40
2018-09-30T03:13:46.065Z,3.03
2018-09-30T03:16:50.583Z,3.40
2018-09-30T03:19:54.976Z,3.57
2018-09-30T03:22:59.461Z,3.13
2018-09-30T03:26:03.951Z,4.33
2018-09-30T03:29:08.494Z,3.80
2018-09-30T03:32:13.013Z,3.20
2018-09-30T03:35:17.538Z,3.27
2018-09-30T03:38:22.038Z,3.33
2018-09-30T03:41:26.460Z,3.77
2018-09-30T03:44:30.926Z,3.50
2018-09-30T03:47:35.412Z,3.10
2018-09-30T03:50:39.849Z,3.10
2018-09-30T03:53:44.291Z,3.03
2018-09-30T03:56:48.788Z,3.03
2018-09-30T03:59:53.198Z,3.20
2018-09-30T04:02:57.661Z,2.97
2018-09-30T04:06:02.168Z,2.63
2018-09-30T04:09:09.229Z,3.77
2018-09-30T04:12:13.685Z,3.40
2018-09-30T04:15:18.119Z,3.57
2018-09-30T04:18:22.584Z,3.23
2018-09-30T04:21:27.077Z,3.37
2018-09-30T04:24:31.573Z,3.40
2018-09-30T04:27:36.009Z,3.23
2018-09-30T04:30:40.478Z,2.90
2018-09-30T04:33:44.975Z,4.73
2018-09-30T04:36:49.435Z,4.50
2018-09-30T04:39:53.871Z,4.83
2018-09-30T04:42:58.334Z,4.90
2018-09-30T04:46:02.844Z,5.23
2018-09-30T04:49:07.411Z,4.77
2018-09-30T04:52:11.923Z,6.23
2018-09-30T04:55:16.457Z,5.70
2018-09-30T04:58:20.913Z,5.47
2018-09-30T05:01:25.458Z,5.33
2018-09-30T05:04:29.982Z,5.27
2018-09-30T05:07:34.517Z,5.53
2018-09-30T05:10:39.023Z,5.37
2018-09-30T05:13:45.151Z,4.87
2018-09-30T05:16:49.678Z,4.40
2018-09-30T05:19:54.527Z,5.17
2018-09-30T05:22:59.017Z,6.13
2018-09-30T05:26:03.624Z,8.40
2018-09-30T05:29:08.207Z,10.10
2018-09-30T05:32:12.823Z,6.30
2018-09-30T05:35:17.333Z,11.63
2018-09-30T05:38:21.861Z,12.27
2018-09-30T05:41:26.365Z,15.93
2018-09-30T05:44:30.909Z,11.40
2018-09-30T05:47:35.647Z,13.47
2018-09-30T05:50:40.137Z,14.07
2018-09-30T05:53:44.739Z,11.10
2018-09-30T05:56:49.204Z,9.73
2018-09-30T05:59:54.096Z,5.67
2018-09-30T06:02:58.691Z,5.80
2018-09-30T06:06:03.141Z,5.30
2018-09-30T06:09:12.545Z,6.97
2018-09-30T06:12:16.871Z,6.00
2018-09-30T06:15:21.449Z,5.87
2018-09-30T06:18:25.924Z,7.63
2018-09-30T06:21:30.521Z,8.43
2018-09-30T06:24:35.055Z,13.30
2018-09-30T06:27:39.515Z,12.63
2018-09-30T06:30:44.125Z,10.90
2018-09-30T06:33:48.583Z,11.23
2018-09-30T06:36:53.127Z,14.07
2018-09-30T06:39:57.678Z,12.13
2018-09-30T06:43:02.176Z,14.13
2018-09-30T06:46:06.659Z,7.37
2018-09-30T06:49:11.255Z,11.53
2018-09-30T06:52:15.715Z,13.43
2018-09-30T06:55:20.228Z,8.10
2018-09-30T06:58:24.683Z,7.77
2018-09-30T07:01:29.287Z,8.93
2018-09-30T07:04:33.874Z,6.80
2018-09-30T07:07:38.566Z,9.20
2018-09-30T07:10:43.182Z,9.27
2018-09-30T07:13:47.637Z,9.47
2018-09-30T07:16:52.169Z,9.23
2018-09-30T07:19:56.768Z,8.20
2018-09-30T07:23:01.277Z,6.77
2018-09-30T07:26:05.776Z,6.63
2018-09-30T07:29:10.308Z,6.50
2018-09-30T07:32:14.836Z,6.93
2018-09-30T07:35:19.456Z,5.73
2018-09-30T07:38:23.887Z,6.13
2018-09-30T07:41:28.414Z,6.57
2018-09-30T07:44:32.874Z,7.77
2018-09-30T07:47:37.339Z,7.97
2018-09-30T07:50:41.873Z,9.93
2018-09-30T07:53:46.352Z,10.53
2018-09-30T07:56:50.857Z,11.93
2018-09-30T07:59:55.362Z,11.03
2018-09-30T08:02:59.952Z,10.90
2018-09-30T08:06:04.436Z,10.03
2018-09-30T08:09:09.939Z,10.60
2018-09-30T08:12:14.497Z,10.17
2018-09-30T08:15:18.953Z,10.37
2018-09-30T08:18:23.499Z,8.77
2018-09-30T08:21:28.142Z,9.30
2018-09-30T08:24:32.683Z,9.40
2018-09-30T08:27:37.108Z,10.17
2018-09-30T08:30:41.791Z,9.70
2018-09-30T08:33:46.413Z,8.77
2018-09-30T08:36:50.983Z,5.63
2018-09-30T08:39:55.676Z,4.67
2018-09-30T08:43:00.134Z,4.47
2018-09-30T08:46:04.740Z,4.20
2018-09-30T08:49:09.333Z,4.13
2018-09-30T08:52:13.791Z,3.07
2018-09-30T08:55:18.357Z,2.97
2018-09-30T08:58:23.561Z,2.90
2018-09-30T09:01:28.072Z,2.97
2018-09-30T09:04:32.621Z,2.67
2018-09-30T09:07:37.191Z,2.47
2018-09-30T09:10:41.732Z,2.97
2018-09-30T09:13:46.268Z,2.50
2018-09-30T09:16:50.898Z,2.60
2018-09-30T09:19:55.748Z,2.70
2018-09-30T09:23:00.222Z,2.17
2018-09-30T09:26:04.794Z,2.50
2018-09-30T09:29:09.300Z,2.50
2018-09-30T09:32:13.889Z,2.50
2018-09-30T09:35:18.467Z,2.13
2018-09-30T09:38:23.024Z,2.50
2018-09-30T09:41:27.498Z,2.40
2018-09-30T09:44:32.123Z,2.23
2018-09-30T09:47:36.661Z,2.50
2018-09-30T09:50:41.210Z,2.10
2018-09-30T09:53:45.665Z,2.00
2018-09-30T09:56:50.150Z,2.07
2018-09-30T09:59:54.652Z,1.73
2018-09-30T10:02:59.171Z,1.83
2018-09-30T10:06:03.751Z,2.00
2018-09-30T10:09:08.308Z,2.17
2018-09-30T10:12:12.776Z,6.93
2018-09-30T10:15:17.217Z,2.80
2018-09-30T10:18:21.739Z,2.70
2018-09-30T10:21:26.304Z,1.70
2018-09-30T10:24:30.832Z,2.00
2018-09-30T10:27:35.308Z,1.90
2018-09-30T10:30:39.784Z,2.10
2018-09-30T10:33:44.210Z,2.00
2018-09-30T10:36:48.670Z,2.07
2018-09-30T10:39:53.117Z,2.40
2018-09-30T10:42:57.630Z,2.10
2018-09-30T10:46:02.541Z,1.53
2018-09-30T10:49:07.460Z,2.43
2018-09-30T10:52:11.956Z,2.00
2018-09-30T10:55:16.576Z,2.27
2018-09-30T10:58:20.991Z,2.20
2018-09-30T11:01:25.509Z,1.80
2018-09-30T11:04:30.093Z,1.97
2018-09-30T11:07:34.654Z,2.57
2018-09-30T11:10:39.345Z,2.40
2018-09-30T11:13:43.851Z,2.57
2018-09-30T11:16:48.450Z,2.30
2018-09-30T11:19:53.117Z,2.23
2018-09-30T11:22:57.539Z,2.30
2018-09-30T11:26:02.174Z,2.33
2018-09-30T11:29:07.117Z,2.60
2018-09-30T11:32:11.588Z,2.13
2018-09-30T11:35:16.095Z,2.33
2018-09-30T11:38:20.964Z,2.57
2018-09-30T11:41:25.444Z,2.30
2018-09-30T11:44:29.914Z,2.90
2018-09-30T11:47:34.422Z,2.70
2018-09-30T11:50:39.005Z,2.43
2018-09-30T11:53:43.550Z,2.53
2018-09-30T11:56:48.052Z,2.70
2018-09-30T11:59:52.529Z,2.37
2018-09-30T12:02:57.040Z,2.40
2018-09-30T12:06:01.722Z,2.20
2018-09-30T12:09:09.169Z,2.97
2018-09-30T12:12:13.715Z,2.53
2018-09-30T12:15:18.299Z,2.17
2018-09-30T12:18:22.857Z,2.63
2018-09-30T12:21:27.641Z,2.70
2018-09-30T12:24:32.366Z,2.80
2018-09-30T12:27:36.973Z,2.40
2018-09-30T12:30:41.668Z,2.60
2018-09-30T12:33:46.159Z,2.50
2018-09-30T12:36:50.818Z,2.67
2018-09-30T12:39:55.622Z,2.87
2018-09-30T12:43:00.251Z,2.80
2018-09-30T12:46:04.900Z,2.50
2018-09-30T12:49:09.593Z,2.53
2018-09-30T12:52:14.121Z,2.20
2018-09-30T12:55:18.653Z,2.50
2018-09-30T12:58:23.198Z,2.50
2018-09-30T13:01:27.955Z,2.60
2018-09-30T13:04:32.518Z,2.80
2018-09-30T13:07:37.123Z,2.53
2018-09-30T13:10:41.618Z,2.40
2018-09-30T13:13:46.098Z,2.70
2018-09-30T13:16:50.684Z,2.80
2018-09-30T13:19:55.209Z,2.70
2018-09-30T13:22:59.832Z,2.60
2018-09-30T13:26:04.366Z,2.63
2018-09-30T13:29:09.147Z,2.40
2018-09-30T13:32:13.768Z,2.47
2018-09-30T13:35:18.555Z,2.10
2018-09-30T13:38:23.084Z,2.20
2018-09-30T13:41:27.571Z,2.43
2018-09-30T13:44:32.527Z,2.60
2018-09-30T13:47:37.173Z,2.70
2018-09-30T13:50:41.778Z,2.63
2018-09-30T13:53:46.455Z,2.40
2018-09-30T13:56:51.065Z,4.87
2018-09-30T13:59:55.646Z,2.23
2018-09-30T14:03:00.160Z,5.20
2018-09-30T14:06:04.796Z,2.20
2018-09-30T14:09:10.514Z,2.30
2018-09-30T14:12:15.216Z,2.50
2018-09-30T14:15:19.673Z,2.80
2018-09-30T14:18:24.298Z,2.33
2018-09-30T14:21:28.868Z,2.40
2018-09-30T14:24:34.110Z,1.83
2018-09-30T14:27:38.568Z,1.90
2018-09-30T14:30:43.022Z,1.90
2018-09-30T14:33:47.624Z,2.27
2018-09-30T14:36:52.146Z,1.93
2018-09-30T14:39:56.723Z,2.10
2018-09-30T14:43:01.314Z,2.23
2018-09-30T14:46:05.917Z,1.70
2018-09-30T14:49:10.416Z,2.10
2018-09-30T14:52:15.000Z,1.90
2018-09-30T14:55:19.594Z,1.77
2018-09-30T14:58:24.136Z,2.07
2018-09-30T15:01:28.673Z,2.00
2018-09-30T15:04:33.551Z,1.90
2018-09-30T15:07:38.090Z,2.30
2018-09-30T15:10:42.683Z,1.80
2018-09-30T15:13:47.954Z,2.00
2018-09-30T15:16:52.513Z,2.60
2018-09-30T15:19:57.039Z,1.83
2018-09-30T15:23:01.782Z,2.50
2018-09-30T15:26:06.435Z,2.03
2018-09-30T15:29:11.032Z,1.80
2018-09-30T15:32:15.503Z,1.70
2018-09-30T15:35:20.029Z,2.17
2018-09-30T15:38:24.556Z,2.10
2018-09-30T15:41:29.071Z,1.93
2018-09-30T15:44:33.751Z,2.27
2018-09-30T15:47:38.318Z,1.80
2018-09-30T15:50:42.858Z,1.67
2018-09-30T15:53:47.556Z,1.90
2018-09-30T15:56:52.284Z,1.67
2018-09-30T15:59:56.774Z,2.20
2018-09-30T16:03:01.386Z,2.03
2018-09-30T16:06:05.861Z,1.83
2018-09-30T16:09:10.946Z,2.00
2018-09-30T16:12:15.431Z,2.10
2018-09-30T16:15:19.965Z,1.97
2018-09-30T16:18:24.477Z,2.20
2018-09-30T16:21:29.123Z,2.07
2018-09-30T16:24:33.619Z,1.90
2018-09-30T16:27:38.106Z,2.80
2018-09-30T16:30:42.743Z,3.27
2018-09-30T16:33:47.201Z,3.30
2018-09-30T16:36:51.742Z,2.60
2018-09-30T16:39:56.335Z,2.37
2018-09-30T16:43:00.859Z,2.40
2018-09-30T16:46:05.504Z,2.50
2018-09-30T16:49:10.167Z,2.87
2018-09-30T16:52:14.684Z,6.40
2018-09-30T16:55:19.301Z,4.83
2018-09-30T16:58:23.758Z,2.97
2018-09-30T17:01:28.231Z,3.53
2018-09-30T17:04:32.763Z,3.50
2018-09-30T17:07:37.290Z,3.50
2018-09-30T17:10:41.719Z,2.73
2018-09-30T17:13:46.248Z,3.40
2018-09-30T17:16:50.765Z,2.97
2018-09-30T17:19:55.301Z,2.93
2018-09-30T17:22:59.755Z,3.30
2018-09-30T17:26:04.389Z,4.90
2018-09-30T17:29:09.254Z,4.83
2018-09-30T17:32:13.780Z,2.97
2018-09-30T17:35:18.468Z,5.10
2018-09-30T17:38:23.164Z,9.43
2018-09-30T17:41:27.778Z,14.37
2018-09-30T17:44:32.444Z,5.57
2018-09-30T17:47:37.047Z,5.97
2018-09-30T17:50:41.602Z,5.40
2018-09-30T17:53:46.345Z,21.13
2018-09-30T17:56:50.914Z,16.37
2018-09-30T17:59:55.476Z,12.23
2018-09-30T18:03:00.002Z,7.83
2018-09-30T18:06:04.689Z,7.13
2018-09-30T18:09:11.452Z,4.27
2018-09-30T18:12:16.098Z,3.67
2018-09-30T18:15:20.683Z,3.37
2018-09-30T18:18:25.373Z,5.40
2018-09-30T18:21:32.332Z,6.10
2018-09-30T18:24:37.102Z,7.17
2018-09-30T18:27:43.547Z,8.50
2018-09-30T18:30:48.985Z,7.63
2018-09-30T18:33:54.597Z,6.90
2018-09-30T18:36:59.272Z,5.43
2018-09-30T18:40:04.279Z,3.80
2018-09-30T18:43:09.662Z,3.30
2018-09-30T18:46:14.337Z,4.80
2018-09-30T18:49:19.107Z,3.97
2018-09-30T18:52:23.927Z,3.60
2018-09-30T18:55:28.615Z,2.73
2018-09-30T18:58:33.114Z,3.50
2018-09-30T19:01:37.880Z,4.17
2018-09-30T19:04:43.067Z,3.97
2018-09-30T19:07:48.100Z,3.60
2018-09-30T19:10:53.180Z,3.83
2018-09-30T19:13:57.718Z,5.00
2018-09-30T19:17:02.613Z,5.30
2018-09-30T19:20:08.164Z,6.57
2018-09-30T19:23:12.903Z,5.07
2018-09-30T19:26:18.202Z,4.43
2018-09-30T19:29:22.823Z,4.50
2018-09-30T19:32:27.393Z,3.20
2018-09-30T19:35:31.980Z,6.27
2018-09-30T19:38:36.509Z,3.60
2018-09-30T19:41:41.215Z,3.43
2018-09-30T19:44:45.863Z,3.40
2018-09-30T19:47:50.799Z,3.23
2018-09-30T19:50:55.396Z,3.00
2018-09-30T19:54:00.137Z,2.93
2018-09-30T19:57:04.782Z,3.50
2018-09-30T20:00:09.400Z,4.30
2018-09-30T20:03:14.030Z,4.70
2018-09-30T20:06:18.875Z,6.60
2018-09-30T20:09:23.488Z,8.63
2018-09-30T20:12:28.072Z,8.07
2018-09-30T20:15:32.675Z,8.70
2018-09-30T20:18:37.237Z,7.80
2018-09-30T20:21:41.797Z,8.47
2018-09-30T20:24:46.291Z,8.67
2018-09-30T20:27:50.894Z,7.70
2018-09-30T20:30:56.025Z,6.93
2018-09-30T20:34:00.825Z,5.53
2018-09-30T20:37:05.412Z,5.67
2018-09-30T20:40:10.278Z,6.90
2018-09-30T20:43:15.003Z,6.47
2018-09-30T20:46:20.072Z,5.27
2018-09-30T20:49:24.686Z,4.87
2018-09-30T20:52:29.341Z,4.93
2018-09-30T20:55:35.511Z,4.70
2018-09-30T20:58:40.660Z,4.40
2018-09-30T21:01:45.330Z,3.90
2018-09-30T21:04:50.022Z,5.13
2018-09-30T21:07:55.089Z,5.17
2018-09-30T21:10:59.777Z,4.67
2018-09-30T21:14:05.094Z,4.77
2018-09-30T21:17:09.656Z,4.13
2018-09-30T21:20:14.251Z,4.77
2018-09-30T21:23:18.924Z,4.90
2018-09-30T21:26:23.378Z,4.70
2018-09-30T21:29:27.847Z,4.77
2018-09-30T21:32:32.371Z,4.57
2018-09-30T21:35:38.135Z,5.03
2018-09-30T21:38:42.646Z,4.80
2018-09-30T21:41:47.377Z,5.50
2018-09-30T21:44:51.992Z,5.33
2018-09-30T21:47:56.548Z,5.63
2018-09-30T21:51:01.058Z,6.30
2018-09-30T21:54:05.637Z,5.57
2018-09-30T21:57:10.207Z,5.53
2018-09-30T22:00:18.740Z,5.37
2018-09-30T22:03:23.449Z,5.17
2018-09-30T22:06:28.172Z,5.53
2018-09-30T22:09:33.670Z,5.07
2018-09-30T22:12:38.441Z,4.47
2018-09-30T22:15:43.438Z,4.60
2018-09-30T22:18:48.031Z,4.80
2018-09-30T22:21:52.735Z,5.33
2018-09-30T22:24:57.289Z,5.63
2018-09-30T22:28:02.161Z,5.53
2018-09-30T22:31:06.740Z,5.83
2018-09-30T22:34:11.273Z,5.77
2018-09-30T22:37:15.830Z,5.77
2018-09-30T22:40:20.380Z,5.27
2018-09-30T22:43:24.918Z,4.93
2018-09-30T22:46:29.388Z,4.87
2018-09-30T22:49:33.921Z,4.00
2018-09-30T22:52:38.486Z,4.03
2018-09-30T22:55:42.958Z,4.50
2018-09-30T22:58:47.490Z,4.70
2018-09-30T23:01:52.214Z,4.37
2018-09-30T23:04:56.695Z,4.40
2018-09-30T23:08:01.407Z,4.70
2018-09-30T23:11:05.955Z,5.70
2018-09-30T23:14:10.707Z,5.23
2018-09-30T23:17:15.341Z,6.13
2018-09-30T23:20:20.028Z,6.07
2018-09-30T23:23:24.595Z,5.37
2018-09-30T23:26:29.072Z,4.97
2018-09-30T23:29:33.604Z,5.00
2018-09-30T23:32:38.765Z,5.10
2018-09-30T23:35:43.637Z,5.03
2018-09-30T23:38:48.385Z,5.10
2018-09-30T23:41:53.100Z,5.37
2018-09-30T23:44:57.778Z,5.73
2018-09-30T23:48:02.522Z,5.07
2018-09-30T23:51:06.949Z,5.40
2018-09-30T23:54:11.521Z,5.03
2018-09-30T23:57:16.091Z,6.27
